Time;durP1;ratioP1;P1;durP2;ratioP2;P2;SDS_P1;SDS_P2;PMS_P1;PMS_P2;Temp;Humidity;BMP_temperature;BMP_pressure;BME280_temperature;BME280_humidity;BME280_pressure;Samples;Min_cycle;Max_cycle;Signal;HPM_P1;HPM_P2
2022/04/30 00:00:43;;;;;;;9.18;7.07;;;;;;;-143.53;100.00;58366.03;2081683;28;20201;-75
2022/04/30 00:01:46;;;;;;;9.05;6.15;;;;;;;-143.53;100.00;58366.03;2083656;28;20755;-74
2022/04/30 00:02:48;;;;;;;7.97;6.43;;;;;;;-143.53;100.00;58366.03;2086506;28;20199;-75
2022/04/30 00:03:49;;;;;;;13.00;7.35;;;;;;;-143.53;100.00;58366.03;2086060;28;20373;-75
2022/04/30 00:04:51;;;;;;;12.80;6.90;;;;;;;-143.53;100.00;58366.03;2081418;28;20196;-75
2022/04/30 00:05:52;;;;;;;7.80;6.40;;;;;;;-143.53;100.00;58366.03;2074677;28;20643;-75
2022/04/30 00:06:54;;;;;;;11.70;7.50;;;;;;;-143.53;100.00;58366.03;2091133;28;20560;-75
2022/04/30 00:07:55;;;;;;;11.90;7.35;;;;;;;-143.53;100.00;58366.03;2088458;28;20211;-75
2022/04/30 00:08:57;;;;;;;15.07;6.95;;;;;;;-143.53;100.00;58366.03;2082981;28;20200;-75
2022/04/30 00:09:58;;;;;;;7.57;5.93;;;;;;;-143.53;100.00;58366.03;2083590;28;20192;-75
2022/04/30 00:11:00;;;;;;;10.60;6.45;;;;;;;-143.53;100.00;58366.03;2076651;28;20221;-74
2022/04/30 00:12:02;;;;;;;10.50;6.50;;;;;;;-143.53;100.00;58366.03;2086343;28;20203;-75
2022/04/30 00:13:10;;;;;;;13.07;6.07;;;;;;;-143.53;100.00;58366.03;2085345;28;20192;-75
2022/04/30 00:14:11;;;;;;;13.75;7.28;;;;;;;-143.53;100.00;58366.03;2083657;28;20589;-75
2022/04/30 00:15:13;;;;;;;9.35;6.18;;;;;;;-143.53;100.00;58366.03;2083651;28;20197;-74
2022/04/30 00:16:15;;;;;;;9.98;6.50;;;;;;;-143.53;100.00;58366.03;2083062;28;20266;-74
2022/04/30 00:17:16;;;;;;;8.57;6.00;;;;;;;-143.53;100.00;58366.03;2083685;28;20204;-75
2022/04/30 00:18:18;;;;;;;10.75;5.93;;;;;;;-143.53;100.00;58366.03;2084915;28;20220;-74
2022/04/30 00:19:21;;;;;;;10.68;7.10;;;;;;;-143.53;100.00;58366.03;2084161;28;20233;-74
2022/04/30 00:20:24;;;;;;;14.43;7.78;;;;;;;-143.53;100.00;58366.03;2084908;28;20200;-75
2022/04/30 00:21:26;;;;;;;11.38;7.70;;;;;;;-143.53;100.00;58366.03;2077291;28;20302;-75
2022/04/30 00:22:27;;;;;;;16.55;7.80;;;;;;;-143.53;100.00;58366.03;2079887;28;20205;-75
2022/04/30 00:23:30;;;;;;;16.27;7.80;;;;;;;-143.53;100.00;58366.03;2076635;28;20695;-75
2022/04/30 00:24:31;;;;;;;12.18;8.10;;;;;;;-143.53;100.00;58366.03;2082501;28;20201;-75
2022/04/30 00:25:33;;;;;;;12.32;8.65;;;;;;;-143.53;100.00;58366.03;2077390;28;20193;-74
2022/04/30 00:26:34;;;;;;;13.18;8.07;;;;;;;-143.53;100.00;58366.03;2085953;28;20200;-74
2022/04/30 00:27:36;;;;;;;10.18;7.38;;;;;;;-143.53;100.00;58366.03;2087177;28;20264;-74
2022/04/30 00:28:37;;;;;;;19.00;10.15;;;;;;;-143.53;100.00;58366.03;2085249;28;20716;-74
2022/04/30 00:29:39;;;;;;;16.50;10.50;;;;;;;-143.53;100.00;58366.03;2085530;28;20566;-74
2022/04/30 00:30:43;;;;;;;17.30;10.25;;;;;;;-143.53;100.00;58366.03;2080701;28;20545;-74
2022/04/30 00:31:45;;;;;;;20.02;12.15;;;;;;;-143.53;100.00;58366.03;2082312;28;20193;-75
2022/04/30 00:32:48;;;;;;;24.77;13.50;;;;;;;-143.53;100.00;58366.03;2084226;28;20204;-74
2022/04/30 00:33:49;;;;;;;22.92;12.48;;;;;;;-143.53;100.00;58366.03;2085337;28;20201;-74
2022/04/30 00:34:51;;;;;;;24.08;11.45;;;;;;;-143.53;100.00;58366.03;2084163;28;20243;-74
2022/04/30 00:35:52;;;;;;;25.60;11.60;;;;;;;-143.53;100.00;58366.03;2073287;28;20611;-75
2022/04/30 00:36:55;;;;;;;25.40;13.80;;;;;;;-143.53;100.00;58366.03;2092941;28;20207;-74
2022/04/30 00:37:57;;;;;;;30.08;14.60;;;;;;;-143.53;100.00;58366.03;2087367;28;20204;-74
2022/04/30 00:38:58;;;;;;;27.30;13.63;;;;;;;-143.53;100.00;58366.03;2084090;28;20740;-74
2022/04/30 00:40:02;;;;;;;29.95;14.05;;;;;;;-143.53;100.00;58366.03;2082801;28;20185;-74
2022/04/30 00:41:03;;;;;;;25.75;13.93;;;;;;;-143.53;100.00;58366.03;2070526;28;20279;-74
2022/04/30 00:42:05;;;;;;;24.80;14.27;;;;;;;-143.53;100.00;58366.03;2078205;28;20212;-74
2022/04/30 00:43:06;;;;;;;24.58;14.30;;;;;;;-143.53;100.00;58366.03;2080479;28;20212;-75
2022/04/30 00:44:08;;;;;;;21.98;14.52;;;;;;;-143.53;100.00;58366.03;2081855;28;20239;-74
2022/04/30 00:45:10;;;;;;;23.67;14.15;;;;;;;-143.53;100.00;58366.03;2084005;28;20197;-75
2022/04/30 00:46:15;;;;;;;27.95;14.55;;;;;;;-143.53;100.00;58366.03;2082511;28;20594;-75
2022/04/30 00:47:18;;;;;;;29.40;13.30;;;;;;;-143.53;100.00;58366.03;2081577;28;20248;-74
2022/04/30 00:48:20;;;;;;;26.30;15.68;;;;;;;-143.53;100.00;58366.03;2083162;28;20203;-74
2022/04/30 00:49:22;;;;;;;25.65;15.32;;;;;;;-143.53;100.00;58366.03;2084964;28;20203;-74
2022/04/30 00:50:27;;;;;;;28.25;15.10;;;;;;;-143.53;100.00;58366.03;2082542;28;20242;-74
2022/04/30 00:51:29;;;;;;;44.72;16.88;;;;;;;-143.53;100.00;58366.03;2076164;28;20235;-74
2022/04/30 00:52:32;;;;;;;30.95;16.85;;;;;;;-143.53;100.00;58366.03;2086716;28;20197;-74
2022/04/30 00:53:33;;;;;;;23.98;15.30;;;;;;;-143.53;100.00;58366.03;2083693;28;20212;-75
2022/04/30 00:54:37;;;;;;;25.88;16.20;;;;;;;-143.53;100.00;58366.03;2082196;28;20205;-75
2022/04/30 00:55:42;;;;;;;39.30;16.52;;;;;;;-143.53;100.00;58366.03;2074360;28;20204;-75
2022/04/30 00:56:58;;;;;;;29.83;15.90;;;;;;;-143.53;100.00;58366.03;2088337;28;20293;-74
2022/04/30 00:58:04;;;;;;;28.88;17.02;;;;;;;-143.53;100.00;58366.03;2086507;28;20199;-74
2022/04/30 00:59:06;;;;;;;29.98;16.42;;;;;;;-143.53;100.00;58366.03;2083488;28;20269;-74
2022/04/30 01:00:08;;;;;;;27.80;17.70;;;;;;;-143.53;100.00;58366.03;2085391;28;20250;-74
2022/04/30 01:01:10;;;;;;;29.80;15.85;;;;;;;-143.53;100.00;58366.03;2080523;28;20219;-75
2022/04/30 01:02:12;;;;;;;33.58;17.50;;;;;;;-143.53;100.00;58366.03;2085014;28;20258;-75
2022/04/30 01:03:14;;;;;;;33.10;18.45;;;;;;;-143.53;100.00;58366.03;2082952;28;20197;-75
2022/04/30 01:04:18;;;;;;;34.20;18.17;;;;;;;-143.53;100.00;58366.03;2083891;28;20197;-74
2022/04/30 01:05:20;;;;;;;34.33;18.08;;;;;;;-143.53;100.00;58366.03;2082214;28;20205;-74
2022/04/30 01:06:40;;;;;;;33.97;17.67;;;;;;;-143.53;100.00;58366.03;2076850;28;20231;-74
2022/04/30 01:07:47;;;;;;;32.15;17.30;;;;;;;-143.53;100.00;58366.03;2089777;28;21139;-75
2022/04/30 01:08:49;;;;;;;34.30;17.52;;;;;;;-143.53;100.00;58366.03;2083787;28;20235;-75
2022/04/30 01:09:53;;;;;;;36.58;18.25;;;;;;;-143.53;100.00;58366.03;2083874;28;20230;-74
2022/04/30 01:10:56;;;;;;;33.05;18.23;;;;;;;-143.53;100.00;58366.03;2076248;28;20230;-74
2022/04/30 01:12:06;;;;;;;44.53;18.58;;;;;;;-143.53;100.00;58366.03;2080492;28;20833;-75
2022/04/30 01:13:08;;;;;;;31.23;17.58;;;;;;;-143.53;100.00;58366.03;2083475;28;20214;-75
2022/04/30 01:14:09;;;;;;;38.63;16.77;;;;;;;-143.53;100.00;58366.03;2085235;28;20655;-75
2022/04/30 01:15:12;;;;;;;25.92;15.75;;;;;;;-143.53;100.00;58366.03;2083129;28;20211;-75
2022/04/30 01:16:14;;;;;;;27.42;17.30;;;;;;;-143.53;100.00;58366.03;2084367;28;20722;-74
2022/04/30 01:17:17;;;;;;;26.65;16.63;;;;;;;-143.53;100.00;58366.03;2084999;28;20228;-75
2022/04/30 01:18:19;;;;;;;28.02;17.60;;;;;;;-143.53;100.00;58366.03;2083057;28;20204;-74
2022/04/30 01:19:22;;;;;;;33.20;16.48;;;;;;;-143.53;100.00;58366.03;2083868;28;20213;-74
2022/04/30 01:20:26;;;;;;;22.33;15.18;;;;;;;-143.53;100.00;58366.03;2084406;28;20196;-75
2022/04/30 01:21:30;;;;;;;31.45;15.40;;;;;;;-143.53;100.00;58366.03;2076230;28;20224;-74
2022/04/30 01:23:01;;;;;;;34.17;15.73;;;;;;;-143.53;100.00;58366.03;2088676;28;20192;-75
2022/04/30 01:24:03;;;;;;;33.13;14.48;;;;;;;-143.53;100.00;58366.03;2081520;28;20405;-75
2022/04/30 01:25:06;;;;;;;26.52;15.02;;;;;;;-143.53;100.00;58366.03;2085430;28;20209;-75
2022/04/30 01:26:09;;;;;;;23.88;14.70;;;;;;;-143.53;100.00;58366.03;2075281;28;20385;-74
2022/04/30 01:27:11;;;;;;;27.27;15.38;;;;;;;-143.53;100.00;58366.03;2088486;28;20203;-74
2022/04/30 01:28:14;;;;;;;26.88;15.93;;;;;;;-143.53;100.00;58366.03;2084224;28;20200;-74
2022/04/30 01:29:17;;;;;;;28.23;15.10;;;;;;;-143.53;100.00;58366.03;2084772;28;20189;-74
2022/04/30 01:30:19;;;;;;;26.15;15.00;;;;;;;-143.53;100.00;58366.03;2084212;28;20567;-74
2022/04/30 01:38:04;;;;;;;26.02;13.50;;;;;;;-143.53;100.00;58366.03;2085777;28;20919;-74
2022/04/30 01:39:06;;;;;;;25.13;13.48;;;;;;;-143.53;100.00;58366.03;2086028;28;20645;-74
2022/04/30 01:40:10;;;;;;;24.60;13.23;;;;;;;-143.53;100.00;58366.03;2085120;28;20214;-74
2022/04/30 01:41:11;;;;;;;19.92;12.40;;;;;;;-143.53;100.00;58366.03;2076648;28;20220;-74
2022/04/30 01:42:14;;;;;;;20.15;12.25;;;;;;;-143.53;100.00;58366.03;2088445;28;20200;-74
2022/04/30 01:43:16;;;;;;;20.00;12.15;;;;;;;-143.53;100.00;58366.03;2084357;28;20197;-74
2022/04/30 01:44:19;;;;;;;28.80;13.38;;;;;;;-143.53;100.00;58366.03;2085347;28;20240;-74
2022/04/30 01:45:21;;;;;;;20.85;12.20;;;;;;;-143.53;100.00;58366.03;2086613;28;20192;-75
2022/04/30 01:46:23;;;;;;;25.75;13.25;;;;;;;-143.53;100.00;58366.03;2084933;28;20220;-74
2022/04/30 01:47:28;;;;;;;19.20;11.75;;;;;;;-143.53;100.00;58366.03;2084683;28;20208;-74
2022/04/30 01:48:30;;;;;;;22.20;13.57;;;;;;;-143.53;100.00;58366.03;2084864;28;20205;-74
2022/04/30 01:49:32;;;;;;;26.92;13.85;;;;;;;-143.53;100.00;58366.03;2083315;28;20247;-74
2022/04/30 01:50:34;;;;;;;20.77;12.80;;;;;;;-143.53;100.00;58366.03;2079859;28;20565;-74
2022/04/30 01:51:38;;;;;;;18.30;12.88;;;;;;;-143.53;100.00;58366.03;2084891;28;20573;-74
2022/04/30 01:52:40;;;;;;;21.65;12.65;;;;;;;-143.53;100.00;58366.03;2085337;28;20200;-74
2022/04/30 01:53:42;;;;;;;29.65;13.35;;;;;;;-143.53;100.00;58366.03;2084348;28;20200;-74
2022/04/30 01:54:44;;;;;;;19.20;12.18;;;;;;;-143.53;100.00;58366.03;2083513;28;20196;-74
2022/04/30 01:55:47;;;;;;;24.33;12.10;;;;;;;-143.53;100.00;58366.03;2073309;28;20234;-74
2022/04/30 01:56:49;;;;;;;23.70;12.20;;;;;;;-143.53;100.00;58366.03;2088252;28;20204;-74
2022/04/30 01:57:50;;;;;;;20.42;13.00;;;;;;;-143.53;100.00;58366.03;2083630;28;20192;-75
2022/04/30 01:58:52;;;;;;;22.88;13.38;;;;;;;-143.53;100.00;58366.03;2084121;28;20197;-75
2022/04/30 01:59:54;;;;;;;21.58;13.45;;;;;;;-143.53;100.00;58366.03;2085934;28;20200;-74
2022/04/30 02:01:00;;;;;;;23.73;13.25;;;;;;;-143.53;100.00;58366.03;2078068;28;20716;-74
2022/04/30 02:02:03;;;;;;;24.52;12.23;;;;;;;-143.53;100.00;58366.03;2092920;28;20706;-75
2022/04/30 02:03:09;;;;;;;19.90;13.13;;;;;;;-143.53;100.00;58366.03;2084667;28;20196;-74
2022/04/30 02:04:11;;;;;;;22.15;13.52;;;;;;;-143.53;100.00;58366.03;2085856;28;20200;-74
2022/04/30 02:05:15;;;;;;;30.05;14.43;;;;;;;-143.53;100.00;58366.03;2085379;28;20242;-75
2022/04/30 02:06:20;;;;;;;27.90;14.15;;;;;;;-143.53;100.00;58366.03;2076980;28;20232;-74
2022/04/30 02:07:23;;;;;;;27.48;15.05;;;;;;;-143.53;100.00;58366.03;2087799;28;20196;-74
2022/04/30 02:08:26;;;;;;;21.30;14.00;;;;;;;-143.53;100.00;58366.03;2085447;28;20203;-74
2022/04/30 02:09:29;;;;;;;26.02;14.75;;;;;;;-143.53;100.00;58366.03;2085112;28;20205;-74
2022/04/30 02:10:31;;;;;;;23.33;14.57;;;;;;;-143.53;100.00;58366.03;2085612;28;20265;-74
2022/04/30 02:11:33;;;;;;;24.83;15.38;;;;;;;-143.53;100.00;58366.03;2083024;28;20266;-74
2022/04/30 02:12:35;;;;;;;26.77;15.32;;;;;;;-143.53;100.00;58366.03;2089765;28;20188;-74
2022/04/30 02:13:40;;;;;;;30.98;15.82;;;;;;;-143.53;100.00;58366.03;2085124;28;20199;-74
2022/04/30 02:14:46;;;;;;;25.42;15.55;;;;;;;-143.53;100.00;58366.03;2083790;28;20207;-74
2022/04/30 02:15:49;;;;;;;26.98;14.23;;;;;;;-143.53;100.00;58366.03;2077909;28;20197;-74
2022/04/30 02:16:51;;;;;;;25.55;15.18;;;;;;;-143.53;100.00;58366.03;2090730;28;20199;-74
2022/04/30 02:17:53;;;;;;;34.38;16.08;;;;;;;-143.53;100.00;58366.03;2089872;28;20657;-75
2022/04/30 02:18:57;;;;;;;26.98;16.08;;;;;;;-143.53;100.00;58366.03;2083131;28;20207;-74
2022/04/30 02:21:21;;;;;;;35.90;18.05;;;;;;;-143.53;100.00;58366.03;2083235;28;20243;-74
2022/04/30 02:22:24;;;;;;;32.15;17.48;;;;;;;-143.53;100.00;58366.03;2095316;28;20670;-74
2022/04/30 02:23:27;;;;;;;30.30;17.45;;;;;;;-143.53;100.00;58366.03;2083281;28;20200;-74
2022/04/30 02:24:29;;;;;;;33.75;19.27;;;;;;;-143.53;100.00;58366.03;2082114;28;20208;-74
2022/04/30 02:25:31;;;;;;;29.63;18.65;;;;;;;-143.53;100.00;58366.03;2083274;28;20201;-74
2022/04/30 02:26:32;;;;;;;31.92;19.00;;;;;;;-143.53;100.00;58366.03;2080870;28;20757;-74
2022/04/30 02:27:35;;;;;;;33.72;19.10;;;;;;;-143.53;100.00;58366.03;2090638;28;20196;-74
2022/04/30 02:28:36;;;;;;;36.42;19.80;;;;;;;-143.53;100.00;58366.03;2084586;28;20189;-75
2022/04/30 02:29:38;;;;;;;44.85;19.73;;;;;;;-143.53;100.00;58366.03;2083695;28;20197;-75
2022/04/30 02:30:40;;;;;;;35.20;19.85;;;;;;;-143.53;100.00;58366.03;2082986;28;20209;-74
2022/04/30 02:31:41;;;;;;;39.85;21.25;;;;;;;-143.53;100.00;58366.03;2082965;28;20200;-74
2022/04/30 02:32:48;;;;;;;39.95;20.48;;;;;;;-143.53;100.00;58366.03;2082104;28;20612;-74
2022/04/30 02:33:50;;;;;;;43.40;22.40;;;;;;;-143.53;100.00;58366.03;2082726;28;20353;-74
2022/04/30 02:34:51;;;;;;;47.03;25.35;;;;;;;-143.53;100.00;58366.03;2084465;28;20211;-74
2022/04/30 02:35:53;;;;;;;45.72;23.42;;;;;;;-143.53;100.00;58366.03;2074641;28;20225;-74
2022/04/30 02:36:54;;;;;;;45.17;22.35;;;;;;;-143.53;100.00;58366.03;2087604;28;20231;-74
2022/04/30 02:37:59;;;;;;;49.45;24.17;;;;;;;-143.53;100.00;58366.03;2088733;28;20208;-74
2022/04/30 02:39:00;;;;;;;38.22;21.88;;;;;;;-143.53;100.00;58366.03;2082629;28;20193;-74
2022/04/30 02:40:06;;;;;;;40.97;22.20;;;;;;;-143.53;100.00;58366.03;2082883;28;20234;-74
2022/04/30 02:41:08;;;;;;;38.55;22.75;;;;;;;-143.53;100.00;58366.03;2076710;28;20232;-75
2022/04/30 02:42:11;;;;;;;45.60;24.00;;;;;;;-143.53;100.00;58366.03;2087800;28;20215;-74
2022/04/30 02:43:16;;;;;;;38.75;23.42;;;;;;;-143.53;100.00;58366.03;2085862;28;20208;-74
2022/04/30 02:44:18;;;;;;;37.70;22.67;;;;;;;-143.53;100.00;58366.03;2083238;28;20247;-74
2022/04/30 02:45:21;;;;;;;40.95;24.30;;;;;;;-143.53;100.00;58366.03;2083514;28;20839;-75
2022/04/30 02:46:23;;;;;;;37.92;22.33;;;;;;;-143.53;100.00;58366.03;2078496;28;20223;-74
2022/04/30 02:47:25;;;;;;;46.10;22.95;;;;;;;-143.53;100.00;58366.03;2090940;28;20199;-75
2022/04/30 02:48:27;;;;;;;41.70;21.85;;;;;;;-143.53;100.00;58366.03;2082957;28;20201;-74
2022/04/30 02:49:28;;;;;;;43.20;23.85;;;;;;;-143.53;100.00;58366.03;2082865;28;20208;-74
2022/04/30 02:50:30;;;;;;;39.65;23.52;;;;;;;-143.53;100.00;58366.03;2083112;28;20755;-74
2022/04/30 02:51:32;;;;;;;39.70;24.35;;;;;;;-143.53;100.00;58366.03;2069655;28;20220;-75
2022/04/30 02:52:33;;;;;;;35.47;22.55;;;;;;;-143.53;100.00;58366.03;2078524;28;20201;-74
2022/04/30 02:53:35;;;;;;;44.38;22.95;;;;;;;-143.53;100.00;58366.03;2084820;28;20219;-74
2022/04/30 02:54:36;;;;;;;39.53;23.02;;;;;;;-143.53;100.00;58366.03;2084637;28;20196;-74
2022/04/30 02:55:38;;;;;;;39.35;24.30;;;;;;;-143.53;100.00;58366.03;2074634;28;20200;-74
2022/04/30 02:56:39;;;;;;;46.65;24.58;;;;;;;-143.53;100.00;58366.03;2087790;28;20197;-74
2022/04/30 03:00:54;;;;;;;40.30;22.20;;;;;;;-143.53;100.00;58366.03;2060459;28;20198;-75
2022/04/30 03:01:55;;;;;;;41.53;23.15;;;;;;;-143.53;100.00;58366.03;2070108;28;20202;-74
2022/04/30 03:02:57;;;;;;;46.58;22.63;;;;;;;-143.53;100.00;58366.03;2069590;28;20255;-74
2022/04/30 03:04:02;;;;;;;41.47;23.60;;;;;;;-143.53;100.00;58366.03;2070666;28;20209;-74
2022/04/30 03:05:05;;;;;;;36.53;24.08;;;;;;;-143.53;100.00;58366.03;2061654;28;20206;-75
2022/04/30 03:06:07;;;;;;;46.03;24.63;;;;;;;-143.53;100.00;58366.03;2062082;28;20226;-74
2022/04/30 03:07:11;;;;;;;38.30;22.08;;;;;;;-143.53;100.00;58366.03;2070532;28;20194;-74
2022/04/30 03:08:14;;;;;;;40.60;22.17;;;;;;;-143.53;100.00;58366.03;2069465;28;20201;-74
2022/04/30 03:09:16;;;;;;;36.78;22.30;;;;;;;-143.53;100.00;58366.03;2061528;28;20210;-74
2022/04/30 03:10:17;;;;;;;39.78;22.88;;;;;;;-143.53;100.00;58366.03;2065946;28;20202;-74
2022/04/30 03:11:19;;;;;;;43.50;22.20;;;;;;;-143.53;100.00;58366.03;2060568;28;20229;-74
2022/04/30 03:12:21;;;;;;;38.03;22.55;;;;;;;-143.53;100.00;58366.03;2070684;28;20247;-74
2022/04/30 03:13:24;;;;;;;38.80;22.40;;;;;;;-143.53;100.00;58366.03;2070677;28;20202;-74
2022/04/30 03:14:26;;;;;;;42.85;23.10;;;;;;;-143.53;100.00;58366.03;2070045;28;20285;-74
2022/04/30 03:15:30;;;;;;;35.88;22.00;;;;;;;-143.53;100.00;58366.03;2068937;28;20248;-74
2022/04/30 03:21:53;;;;;;;35.83;19.30;;;;;;;-143.53;100.00;58366.03;2070144;28;20221;-74
2022/04/30 03:22:55;;;;;;;38.38;21.08;;;;;;;-143.53;100.00;58366.03;2070703;28;20197;-74
2022/04/30 03:23:56;;;;;;;47.50;23.27;;;;;;;-143.53;100.00;58366.03;2070669;28;20202;-74
2022/04/30 03:24:58;;;;;;;35.83;21.90;;;;;;;-143.53;100.00;58366.03;2070615;28;20201;-74
2022/04/30 03:25:59;;;;;;;41.15;22.92;;;;;;;-143.53;100.00;58366.03;2060646;28;20756;-74
2022/04/30 03:27:01;;;;;;;39.50;23.83;;;;;;;-143.53;100.00;58366.03;2069898;28;20672;-74
2022/04/30 03:28:03;;;;;;;55.58;23.95;;;;;;;-143.53;100.00;58366.03;2070107;28;20201;-73
2022/04/30 03:29:04;;;;;;;45.97;24.10;;;;;;;-143.53;100.00;58366.03;2070624;28;20210;-74
2022/04/30 03:30:06;;;;;;;48.75;24.30;;;;;;;-143.53;100.00;58366.03;2070572;28;20202;-74
2022/04/30 03:31:10;;;;;;;44.00;24.30;;;;;;;-143.53;100.00;58366.03;2060551;28;20228;-74
2022/04/30 03:32:13;;;;;;;62.33;27.20;;;;;;;-143.53;100.00;58366.03;2073055;28;20205;-74
2022/04/30 03:33:14;;;;;;;54.03;27.20;;;;;;;-143.53;100.00;58366.03;2085955;28;20222;-74
2022/04/30 03:34:16;;;;;;;44.97;25.23;;;;;;;-143.53;100.00;58366.03;2082926;28;20209;-74
2022/04/30 03:35:17;;;;;;;49.83;26.80;;;;;;;-143.53;100.00;58366.03;2084792;28;20262;-74
2022/04/30 03:36:19;;;;;;;48.72;26.25;;;;;;;-143.53;100.00;58366.03;2075987;28;20221;-74
2022/04/30 03:37:20;;;;;;;49.63;27.33;;;;;;;-143.53;100.00;58366.03;2087274;28;20196;-74
2022/04/30 03:38:22;;;;;;;50.78;29.08;;;;;;;-143.53;100.00;58366.03;2082572;28;20199;-74
2022/04/30 03:39:24;;;;;;;53.97;27.70;;;;;;;-143.53;100.00;58366.03;2083454;28;20223;-74
2022/04/30 03:40:25;;;;;;;53.65;28.33;;;;;;;-143.53;100.00;58366.03;2084264;28;20547;-74
2022/04/30 03:41:27;;;;;;;55.90;30.30;;;;;;;-143.53;100.00;58366.03;2077678;28;20212;-74
2022/04/30 03:42:28;;;;;;;52.17;29.90;;;;;;;-143.53;100.00;58366.03;2078866;28;20196;-74
2022/04/30 03:43:31;;;;;;;45.20;28.27;;;;;;;-143.53;100.00;58366.03;2083781;28;20200;-74
2022/04/30 03:44:33;;;;;;;57.25;30.55;;;;;;;-143.53;100.00;58366.03;2082625;28;20594;-74
2022/04/30 03:45:35;;;;;;;53.80;28.95;;;;;;;-143.53;100.00;58366.03;2078988;28;20204;-66
2022/04/30 03:46:36;;;;;;;48.55;28.38;;;;;;;-143.53;100.00;58366.03;2083950;28;20196;-66
2022/04/30 03:47:38;;;;;;;62.17;30.15;;;;;;;-143.53;100.00;58366.03;2085171;28;20771;-67
2022/04/30 03:48:40;;;;;;;50.53;29.25;;;;;;;-143.53;100.00;58366.03;2087375;28;20209;-66
2022/04/30 03:49:42;;;;;;;54.72;29.65;;;;;;;-143.53;100.00;58366.03;2086371;28;20204;-66
2022/04/30 03:50:43;;;;;;;49.58;28.70;;;;;;;-143.53;100.00;58366.03;2074806;28;20208;-66
2022/04/30 03:51:45;;;;;;;56.13;30.23;;;;;;;-143.53;100.00;58366.03;2092383;28;20208;-66
2022/04/30 03:52:46;;;;;;;60.20;31.35;;;;;;;-143.53;100.00;58366.03;2087616;28;20204;-67
2022/04/30 03:53:49;;;;;;;46.65;28.13;;;;;;;-143.53;100.00;58366.03;2084344;28;20555;-67
2022/04/30 03:54:50;;;;;;;53.80;30.02;;;;;;;-143.53;100.00;58366.03;2082910;28;20202;-66
2022/04/30 03:55:53;;;;;;;57.50;30.92;;;;;;;-143.53;100.00;58366.03;2074020;28;20193;-66
2022/04/30 03:56:55;;;;;;;49.08;30.25;;;;;;;-143.53;100.00;58366.03;2091411;28;20204;-66
2022/04/30 03:57:56;;;;;;;59.22;32.28;;;;;;;-143.53;100.00;58366.03;2088376;28;20204;-67
2022/04/30 03:58:58;;;;;;;52.42;28.90;;;;;;;-143.53;100.00;58366.03;2084454;28;20712;-67
2022/04/30 04:00:00;;;;;;;57.45;32.50;;;;;;;-143.53;100.00;58366.03;2085183;28;20201;-66
2022/04/30 04:01:02;;;;;;;54.10;31.02;;;;;;;-143.53;100.00;58366.03;2079092;28;20275;-66
2022/04/30 04:02:03;;;;;;;51.03;29.60;;;;;;;-143.53;100.00;58366.03;2090792;28;20198;-66
2022/04/30 04:03:06;;;;;;;62.95;29.85;;;;;;;-143.53;100.00;58366.03;2088243;28;20200;-66
2022/04/30 04:04:07;;;;;;;54.47;31.10;;;;;;;-143.53;100.00;58366.03;2083482;28;20644;-66
2022/04/30 04:05:12;;;;;;;56.58;32.55;;;;;;;-143.53;100.00;58366.03;2083361;28;20200;-66
2022/04/30 04:06:15;;;;;;;53.58;32.28;;;;;;;-143.53;100.00;58366.03;2076014;28;20811;-65
2022/04/30 04:07:16;;;;;;;64.95;33.05;;;;;;;-143.53;100.00;58366.03;2087419;28;20200;-66
2022/04/30 04:08:20;;;;;;;50.88;30.63;;;;;;;-143.53;100.00;58366.03;2084048;28;20200;-66
2022/04/30 04:09:22;;;;;;;55.13;30.98;;;;;;;-143.53;100.00;58366.03;2083496;28;20203;-65
2022/04/30 04:10:23;;;;;;;55.15;31.70;;;;;;;-143.53;100.00;58366.03;2083428;28;20193;-66
2022/04/30 04:11:26;;;;;;;56.15;31.70;;;;;;;-143.53;100.00;58366.03;2075151;28;20234;-65
2022/04/30 04:12:27;;;;;;;53.10;30.65;;;;;;;-143.53;100.00;58366.03;2085935;28;20197;-65
2022/04/30 04:17:38;;;;;;;50.75;30.17;;;;;;;-143.53;100.00;58366.03;2085778;28;20250;-65
2022/04/30 04:18:40;;;;;;;47.78;28.20;;;;;;;-143.53;100.00;58366.03;2081307;28;20284;-65
2022/04/30 04:19:42;;;;;;;58.92;31.20;;;;;;;-143.53;100.00;58366.03;2081216;28;20782;-65
2022/04/30 04:20:43;;;;;;;57.90;30.90;;;;;;;-143.53;100.00;58366.03;2073715;28;20554;-65
2022/04/30 04:21:44;;;;;;;55.05;30.40;;;;;;;-143.53;100.00;58366.03;2090695;28;20207;-65
2022/04/30 04:22:46;;;;;;;61.45;32.42;;;;;;;-143.53;100.00;58366.03;2091443;28;20556;-64
2022/04/30 04:26:28;;;;;;;54.60;27.48;;;;;;;-143.53;100.00;58366.03;2077250;28;20219;-64
2022/04/30 04:27:29;;;;;;;56.95;30.67;;;;;;;-143.53;100.00;58366.03;2086803;28;20735;-64
2022/04/30 04:28:32;;;;;;;55.30;29.02;;;;;;;-143.53;100.00;58366.03;2085549;28;20203;-64
2022/04/30 04:29:33;;;;;;;58.40;29.20;;;;;;;-143.53;100.00;58366.03;2085713;28;20201;-63
2022/04/30 04:30:35;;;;;;;55.47;28.80;;;;;;;-143.53;100.00;58366.03;2075620;28;20200;-64
2022/04/30 04:31:37;;;;;;;53.10;28.83;;;;;;;-143.53;100.00;58366.03;2080510;28;20300;-64
2022/04/30 04:32:39;;;;;;;53.00;29.15;;;;;;;-143.53;100.00;58366.03;2082837;28;20690;-63
2022/04/30 04:33:40;;;;;;;51.28;27.45;;;;;;;-143.53;100.00;58366.03;2081475;28;20205;-63
2022/04/30 04:34:42;;;;;;;47.75;28.75;;;;;;;-143.53;100.00;58366.03;2081031;28;20228;-62
2022/04/30 04:35:50;;;;;;;51.20;29.25;;;;;;;-143.53;100.00;58366.03;2071751;28;20208;-63
2022/04/30 04:36:51;;;;;;;60.88;28.08;;;;;;;-143.53;100.00;58366.03;2085857;28;20196;-62
2022/04/30 04:37:54;;;;;;;60.63;31.73;;;;;;;-143.53;100.00;58366.03;2085368;28;20188;-62
2022/04/30 04:38:55;;;;;;;49.00;30.90;;;;;;;-143.53;100.00;58366.03;2084941;28;20201;-64
2022/04/30 04:39:57;;;;;;;54.70;30.50;;;;;;;-143.53;100.00;58366.03;2083962;28;20205;-64
2022/04/30 04:40:58;;;;;;;51.20;30.42;;;;;;;-143.53;100.00;58366.03;2074770;28;20227;-63
2022/04/30 04:42:00;;;;;;;51.22;29.55;;;;;;;-143.53;100.00;58366.03;2091825;28;20631;-63
2022/04/30 04:43:01;;;;;;;54.88;29.42;;;;;;;-143.53;100.00;58366.03;2082620;28;20197;-64
2022/04/30 04:44:03;;;;;;;56.15;29.23;;;;;;;-143.53;100.00;58366.03;2084762;28;20200;-64
2022/04/30 04:45:05;;;;;;;56.42;28.83;;;;;;;-143.53;100.00;58366.03;2082619;28;20560;-63
2022/04/30 04:46:07;;;;;;;52.00;28.33;;;;;;;-143.53;100.00;58366.03;2072256;28;20639;-64
2022/04/30 04:47:09;;;;;;;65.97;30.42;;;;;;;-143.53;100.00;58366.03;2080962;28;20208;-64
2022/04/30 04:48:10;;;;;;;57.25;30.17;;;;;;;-143.53;100.00;58366.03;2087691;28;20223;-64
2022/04/30 04:49:12;;;;;;;56.30;31.13;;;;;;;-143.53;100.00;58366.03;2087911;28;20196;-64
2022/04/30 04:50:13;;;;;;;51.85;30.52;;;;;;;-143.53;100.00;58366.03;2088193;28;20196;-63
2022/04/30 04:51:15;;;;;;;57.08;29.33;;;;;;;-143.53;100.00;58366.03;2080144;28;20216;-64
2022/04/30 04:52:16;;;;;;;50.80;28.83;;;;;;;-143.53;100.00;58366.03;2089685;28;20207;-64
2022/04/30 04:53:18;;;;;;;53.17;29.10;;;;;;;-143.53;100.00;58366.03;2086330;28;20258;-63
2022/04/30 04:54:20;;;;;;;51.70;28.65;;;;;;;-143.53;100.00;58366.03;2085703;28;20200;-63
2022/04/30 04:55:21;;;;;;;56.63;30.05;;;;;;;-143.53;100.00;58366.03;2084724;28;20201;-63
2022/04/30 04:56:23;;;;;;;53.35;30.63;;;;;;;-143.53;100.00;58366.03;2080019;28;20695;-64
2022/04/30 04:57:25;;;;;;;54.72;31.00;;;;;;;-143.53;100.00;58366.03;2084407;28;20836;-64
2022/04/30 04:58:27;;;;;;;56.70;29.20;;;;;;;-143.53;100.00;58366.03;2084201;28;20211;-64
2022/04/30 04:59:28;;;;;;;53.85;31.08;;;;;;;-143.53;100.00;58366.03;2086783;28;20197;-63
2022/04/30 05:00:30;;;;;;;52.47;29.98;;;;;;;-143.53;100.00;58366.03;2084015;28;20197;-63
2022/04/30 05:01:31;;;;;;;49.47;28.10;;;;;;;-143.53;100.00;58366.03;2077982;28;20224;-63